createdAt,value
2019-03-19T00:00:35.158Z,5.70
2019-03-19T00:01:35.129Z,5.70
2019-03-19T00:02:35.105Z,5.80
2019-03-19T00:03:35.089Z,5.70
2019-03-19T00:04:35.081Z,6.00
2019-03-19T00:05:35.035Z,5.90
2019-03-19T00:06:35.012Z,5.40
2019-03-19T00:07:34.987Z,5.90
2019-03-19T00:08:34.985Z,5.40
2019-03-19T00:09:34.961Z,5.20
2019-03-19T00:10:34.936Z,5.90
2019-03-19T00:11:34.914Z,5.70
2019-03-19T00:12:34.876Z,5.80
2019-03-19T00:13:34.850Z,5.90
2019-03-19T00:14:34.828Z,5.70
2019-03-19T00:15:34.804Z,5.70
2019-03-19T00:16:34.799Z,5.80
2019-03-19T00:17:34.761Z,5.50
2019-03-19T00:18:34.737Z,6.00
2019-03-19T00:19:34.752Z,6.00
2019-03-19T00:20:34.693Z,6.00
2019-03-19T00:21:34.671Z,6.10
2019-03-19T00:22:34.677Z,5.90
2019-03-19T00:23:34.620Z,5.80
2019-03-19T00:24:34.598Z,5.80
2019-03-19T00:25:34.576Z,5.80
2019-03-19T00:26:34.570Z,6.00
2019-03-19T00:27:34.572Z,5.70
2019-03-19T00:28:34.560Z,5.70
2019-03-19T00:29:35.466Z,5.90
2019-03-19T00:30:34.490Z,6.00
2019-03-19T00:31:34.967Z,5.50
2019-03-19T00:32:34.503Z,5.90
2019-03-19T00:33:34.613Z,6.10
2019-03-19T00:34:34.387Z,6.20
2019-03-19T00:35:35.090Z,5.80
2019-03-19T00:36:34.319Z,6.20
2019-03-19T00:37:34.302Z,5.80
2019-03-19T00:38:34.275Z,6.30
2019-03-19T00:39:34.285Z,6.20
2019-03-19T00:40:34.229Z,5.60
2019-03-19T00:41:34.206Z,6.00
2019-03-19T00:42:34.192Z,5.90
2019-03-19T00:43:34.180Z,6.20
2019-03-19T00:44:34.134Z,5.90
2019-03-19T00:45:34.131Z,6.10
2019-03-19T00:46:34.087Z,6.00
2019-03-19T00:47:34.067Z,6.60
2019-03-19T00:48:34.044Z,5.90
2019-03-19T00:49:34.031Z,6.40
2019-03-19T00:50:34.015Z,6.30
2019-03-19T00:51:33.975Z,6.30
2019-03-19T00:52:33.971Z,6.40
2019-03-19T00:53:33.930Z,6.10
2019-03-19T00:54:33.904Z,6.30
2019-03-19T00:55:40.713Z,6.10
2019-03-19T00:56:33.891Z,6.40
2019-03-19T00:57:33.831Z,6.60
2019-03-19T00:58:33.813Z,6.20
2019-03-19T00:59:33.789Z,6.70
2019-03-19T01:00:33.767Z,6.20
2019-03-19T01:01:33.744Z,5.80
2019-03-19T01:02:33.747Z,6.40
2019-03-19T01:03:33.702Z,6.10
2019-03-19T01:04:33.676Z,5.90
2019-03-19T01:05:33.647Z,5.80
2019-03-19T01:06:33.645Z,5.90
2019-03-19T01:07:33.601Z,6.20
2019-03-19T01:08:33.589Z,5.90
2019-03-19T01:09:33.553Z,5.80
2019-03-19T01:10:33.548Z,6.00
2019-03-19T01:11:33.508Z,6.50
2019-03-19T01:12:33.521Z,6.00
2019-03-19T01:13:33.495Z,6.10
2019-03-19T01:14:33.439Z,6.30
2019-03-19T01:15:33.414Z,6.10
2019-03-19T01:16:33.392Z,5.80
2019-03-19T01:17:33.369Z,5.90
2019-03-19T01:18:33.360Z,5.90
2019-03-19T01:19:33.324Z,5.70
2019-03-19T01:20:33.305Z,5.90
2019-03-19T01:21:33.277Z,5.90
2019-03-19T01:22:35.035Z,5.90
2019-03-19T01:23:33.243Z,5.90
2019-03-19T01:24:33.206Z,5.80
2019-03-19T01:25:33.179Z,6.50
2019-03-19T01:26:33.161Z,6.70
2019-03-19T01:27:33.139Z,6.50
2019-03-19T01:28:33.144Z,6.70
2019-03-19T01:29:33.089Z,7.00
2019-03-19T01:30:33.062Z,7.10
2019-03-19T01:31:33.040Z,6.40
2019-03-19T01:32:33.026Z,6.60
2019-03-19T01:33:32.994Z,6.80
2019-03-19T01:34:33.008Z,6.40
2019-03-19T01:35:32.948Z,7.20
2019-03-19T01:36:32.926Z,6.60
2019-03-19T01:37:32.898Z,7.00
2019-03-19T01:38:32.879Z,6.80
2019-03-19T01:39:32.859Z,7.00
2019-03-19T01:40:32.873Z,6.90
2019-03-19T01:41:32.811Z,6.90
2019-03-19T01:42:32.782Z,6.90
2019-03-19T01:43:32.761Z,7.20
2019-03-19T01:44:32.739Z,6.90
2019-03-19T01:45:32.718Z,7.10
2019-03-19T01:46:32.706Z,7.10
2019-03-19T01:47:32.666Z,7.00
2019-03-19T01:48:32.661Z,7.70
2019-03-19T01:49:32.641Z,7.30
2019-03-19T01:50:32.609Z,7.30
2019-03-19T01:51:32.573Z,7.30
2019-03-19T01:52:32.585Z,7.30
2019-03-19T01:53:32.526Z,7.10
2019-03-19T01:54:32.506Z,7.40
2019-03-19T01:55:32.486Z,7.20
2019-03-19T01:56:32.464Z,8.00
2019-03-19T01:57:32.431Z,7.70
2019-03-19T01:58:32.434Z,7.10
2019-03-19T01:59:32.397Z,7.40
2019-03-19T02:00:32.367Z,7.50
2019-03-19T02:01:32.344Z,6.90
2019-03-19T02:02:32.314Z,6.90
2019-03-19T02:03:32.292Z,6.70
2019-03-19T02:04:32.267Z,6.90
2019-03-19T02:05:32.259Z,6.60
2019-03-19T02:06:32.222Z,6.90
2019-03-19T02:07:32.192Z,7.70
2019-03-19T02:08:32.169Z,6.60
2019-03-19T02:09:32.163Z,6.90
2019-03-19T02:10:32.125Z,6.80
2019-03-19T02:11:32.101Z,6.50
2019-03-19T02:12:32.092Z,7.40
2019-03-19T02:13:32.051Z,7.20
2019-03-19T02:14:32.031Z,6.90
2019-03-19T02:15:32.027Z,7.20
2019-03-19T02:16:31.990Z,7.90
2019-03-19T02:17:31.961Z,7.60
2019-03-19T02:18:31.934Z,7.30
2019-03-19T02:19:31.913Z,7.80
2019-03-19T02:20:31.885Z,7.70
2019-03-19T02:21:31.882Z,7.10
2019-03-19T02:22:31.840Z,7.50
2019-03-19T02:23:31.822Z,7.90
2019-03-19T02:24:31.931Z,7.20
2019-03-19T02:25:31.765Z,7.30
2019-03-19T02:26:31.792Z,7.50
2019-03-19T02:27:31.742Z,7.50
2019-03-19T02:28:31.696Z,6.80
2019-03-19T02:29:31.674Z,7.60
2019-03-19T02:30:31.650Z,7.20
2019-03-19T02:31:31.636Z,7.30
2019-03-19T02:32:31.605Z,7.20
2019-03-19T02:33:31.599Z,7.00
2019-03-19T02:34:31.555Z,7.20
2019-03-19T02:35:31.533Z,7.70
2019-03-19T02:36:31.504Z,7.50
2019-03-19T02:37:31.487Z,7.60
2019-03-19T02:38:31.462Z,7.00
2019-03-19T02:39:31.462Z,7.50
2019-03-19T02:40:31.415Z,7.30
2019-03-19T02:41:31.387Z,7.70
2019-03-19T02:42:31.364Z,7.40
2019-03-19T02:43:31.340Z,7.40
2019-03-19T02:44:31.318Z,7.60
2019-03-19T02:45:31.309Z,7.30
2019-03-19T02:46:31.280Z,7.10
2019-03-19T02:47:31.244Z,7.20
2019-03-19T02:48:31.221Z,7.60
2019-03-19T02:49:31.197Z,7.20
2019-03-19T02:50:31.190Z,7.30
2019-03-19T02:51:31.154Z,7.50
2019-03-19T02:52:31.134Z,7.60
2019-03-19T02:53:31.112Z,7.40
2019-03-19T02:54:31.087Z,7.30
2019-03-19T02:55:31.058Z,7.10
2019-03-19T02:56:33.087Z,7.00
2019-03-19T02:57:31.008Z,6.80
2019-03-19T02:58:30.985Z,6.90
2019-03-19T02:59:30.977Z,7.10
2019-03-19T03:00:30.976Z,7.60
2019-03-19T03:01:30.912Z,7.10
2019-03-19T03:02:30.922Z,7.60
2019-03-19T03:03:30.870Z,7.60
2019-03-19T03:04:30.850Z,7.30
2019-03-19T03:05:30.815Z,7.40
2019-03-19T03:06:30.791Z,7.40
2019-03-19T03:07:30.770Z,8.00
2019-03-19T03:08:30.761Z,7.40
2019-03-19T03:09:31.517Z,7.40
2019-03-19T03:10:30.729Z,7.80
2019-03-19T03:11:30.676Z,7.70
2019-03-19T03:12:30.657Z,7.70
2019-03-19T03:13:30.629Z,7.70
2019-03-19T03:14:30.602Z,7.80
2019-03-19T03:15:30.581Z,7.00
2019-03-19T03:16:30.569Z,7.90
2019-03-19T03:17:30.560Z,7.80
2019-03-19T03:18:30.504Z,7.70
2019-03-19T03:19:30.482Z,7.80
2019-03-19T03:20:30.461Z,7.80
2019-03-19T03:21:30.434Z,7.70
2019-03-19T03:22:30.411Z,8.20
2019-03-19T03:23:30.409Z,7.90
2019-03-19T03:24:30.367Z,7.80
2019-03-19T03:25:30.336Z,7.30
2019-03-19T03:26:30.315Z,7.80
2019-03-19T03:27:30.303Z,7.70
2019-03-19T03:28:30.266Z,7.70
2019-03-19T03:29:30.242Z,7.80
2019-03-19T03:30:30.221Z,7.10
2019-03-19T03:31:30.197Z,7.10
2019-03-19T03:32:30.189Z,7.30
2019-03-19T03:33:30.150Z,6.90
2019-03-19T03:34:30.123Z,7.20
2019-03-19T03:35:30.098Z,7.20
2019-03-19T03:36:30.094Z,7.50
2019-03-19T03:37:30.098Z,7.40
2019-03-19T03:38:30.032Z,7.40
2019-03-19T03:39:30.011Z,8.00
2019-03-19T03:40:29.976Z,7.60
2019-03-19T03:41:29.961Z,8.20
2019-03-19T03:42:29.951Z,8.30
2019-03-19T03:43:29.909Z,8.40
2019-03-19T03:44:29.882Z,8.40
2019-03-19T03:45:29.861Z,8.50
2019-03-19T03:46:29.838Z,7.90
2019-03-19T03:47:29.822Z,8.30
2019-03-19T03:48:29.790Z,8.00
2019-03-19T03:49:29.765Z,8.40
2019-03-19T03:50:29.742Z,8.20
2019-03-19T03:51:29.712Z,8.00
2019-03-19T03:52:29.729Z,7.80
2019-03-19T03:53:29.683Z,8.30
2019-03-19T03:54:29.647Z,8.30
2019-03-19T03:55:31.217Z,7.80
2019-03-19T03:56:29.596Z,7.90
2019-03-19T03:57:29.586Z,7.40
2019-03-19T03:58:29.548Z,7.30
2019-03-19T03:59:29.523Z,7.50
2019-03-19T04:00:29.534Z,7.70
2019-03-19T04:01:29.474Z,7.80
2019-03-19T04:02:29.452Z,8.80
2019-03-19T04:03:29.432Z,9.00
2019-03-19T04:04:29.405Z,8.40
2019-03-19T04:05:29.382Z,8.90
2019-03-19T04:06:29.379Z,9.90
2019-03-19T04:07:29.331Z,9.40
2019-03-19T04:08:29.318Z,9.00
2019-03-19T04:09:29.284Z,9.50
2019-03-19T04:10:29.261Z,9.30
2019-03-19T04:11:29.253Z,10.20
2019-03-19T04:12:29.227Z,10.70
2019-03-19T04:13:29.188Z,10.30
2019-03-19T04:14:29.160Z,10.20
2019-03-19T04:15:29.160Z,10.60
2019-03-19T04:16:29.119Z,10.30
2019-03-19T04:17:29.093Z,9.70
2019-03-19T04:18:29.068Z,9.90
2019-03-19T04:19:29.038Z,9.70
2019-03-19T04:20:29.019Z,9.60
2019-03-19T04:21:29.010Z,10.10
2019-03-19T04:22:28.986Z,9.90
2019-03-19T04:23:28.946Z,10.50
2019-03-19T04:24:28.921Z,10.00
2019-03-19T04:25:28.894Z,10.10
2019-03-19T04:26:28.874Z,9.90
2019-03-19T04:27:28.862Z,10.60
2019-03-19T04:28:29.542Z,10.40
2019-03-19T04:29:28.798Z,11.10
2019-03-19T04:30:28.773Z,10.90
2019-03-19T04:31:28.767Z,11.40
2019-03-19T04:32:28.738Z,11.40
2019-03-19T04:33:28.709Z,11.70
2019-03-19T04:34:28.676Z,11.70
2019-03-19T04:35:28.653Z,11.80
2019-03-19T04:36:28.656Z,12.40
2019-03-19T04:37:28.605Z,12.30
2019-03-19T04:38:28.581Z,12.30
2019-03-19T04:39:28.556Z,13.10
2019-03-19T04:40:28.547Z,12.70
2019-03-19T04:41:28.516Z,11.60
2019-03-19T04:42:28.483Z,12.10
2019-03-19T04:43:28.470Z,12.60
2019-03-19T04:44:28.451Z,11.70
2019-03-19T04:45:28.412Z,11.90
2019-03-19T04:46:28.391Z,11.20
2019-03-19T04:47:28.367Z,12.10
2019-03-19T04:48:28.352Z,11.60
2019-03-19T04:49:28.319Z,10.50
2019-03-19T04:50:28.299Z,11.30
2019-03-19T04:51:28.263Z,11.50
2019-03-19T04:52:28.258Z,11.70
2019-03-19T04:53:28.221Z,11.80
2019-03-19T04:54:28.189Z,12.10
2019-03-19T04:55:28.183Z,12.70
2019-03-19T04:56:28.140Z,12.00
2019-03-19T04:57:28.117Z,12.60
2019-03-19T04:58:28.099Z,11.90
2019-03-19T04:59:28.070Z,12.20
2019-03-19T05:00:28.073Z,12.50
2019-03-19T05:01:28.037Z,12.60
2019-03-19T05:02:28.002Z,13.00
2019-03-19T05:03:27.974Z,13.20
2019-03-19T05:04:27.954Z,13.00
2019-03-19T05:05:27.929Z,12.90
2019-03-19T05:06:27.921Z,12.80
2019-03-19T05:07:27.886Z,12.10
2019-03-19T05:08:27.856Z,12.30
2019-03-19T05:09:27.831Z,11.50
2019-03-19T05:10:27.830Z,11.50
2019-03-19T05:11:27.804Z,12.00
2019-03-19T05:12:27.772Z,11.40
2019-03-19T05:13:27.738Z,11.50
2019-03-19T05:14:27.716Z,11.80
2019-03-19T05:15:27.697Z,11.30
2019-03-19T05:16:27.671Z,11.30
2019-03-19T05:17:27.661Z,11.00
2019-03-19T05:18:31.275Z,11.00
2019-03-19T05:19:27.589Z,12.00
2019-03-19T05:20:27.569Z,12.80
2019-03-19T05:21:27.551Z,13.00
2019-03-19T05:22:27.534Z,12.70
2019-03-19T05:23:27.495Z,12.00
2019-03-19T05:24:27.472Z,11.80
2019-03-19T05:25:27.451Z,12.40
2019-03-19T05:26:27.435Z,11.50
2019-03-19T05:27:36.984Z,11.50
2019-03-19T05:28:27.378Z,12.20
2019-03-19T05:29:27.351Z,12.30
2019-03-19T05:30:27.330Z,13.20
2019-03-19T05:31:27.301Z,12.90
2019-03-19T05:32:27.274Z,13.90
2019-03-19T05:33:27.270Z,13.80
2019-03-19T05:34:27.238Z,13.40
2019-03-19T05:35:27.210Z,13.10
2019-03-19T05:36:28.985Z,13.10
2019-03-19T05:37:27.223Z,12.70
2019-03-19T05:38:27.133Z,12.40
2019-03-19T05:39:27.130Z,12.90
2019-03-19T05:40:27.088Z,12.20
2019-03-19T05:41:27.069Z,11.80
2019-03-19T05:42:27.035Z,11.60
2019-03-19T05:43:27.029Z,11.20
2019-03-19T05:44:27.030Z,11.20
2019-03-19T05:45:26.968Z,11.50
2019-03-19T05:46:26.941Z,12.00
2019-03-19T05:47:36.806Z,11.40
2019-03-19T05:48:26.890Z,11.60
2019-03-19T05:49:26.873Z,11.90
2019-03-19T05:50:26.875Z,11.40
2019-03-19T05:51:26.828Z,10.90
2019-03-19T05:52:26.801Z,11.20
2019-03-19T05:53:26.806Z,11.60
2019-03-19T05:54:26.763Z,10.90
2019-03-19T05:55:26.727Z,10.90
2019-03-19T05:56:26.718Z,11.40
2019-03-19T05:57:26.681Z,11.30
2019-03-19T05:58:26.654Z,11.20
2019-03-19T05:59:26.629Z,11.20
2019-03-19T06:00:26.677Z,10.80
2019-03-19T06:01:26.611Z,11.30
2019-03-19T06:02:26.566Z,11.30
2019-03-19T06:03:26.582Z,11.10
2019-03-19T06:04:26.516Z,11.50
2019-03-19T06:05:26.496Z,11.90
2019-03-19T06:06:26.480Z,11.90
2019-03-19T06:07:26.454Z,12.00
2019-03-19T06:08:26.415Z,11.60
2019-03-19T06:09:26.400Z,11.70
2019-03-19T06:10:26.394Z,11.90
2019-03-19T06:11:26.353Z,11.90
2019-03-19T06:12:26.320Z,12.50
2019-03-19T06:13:26.296Z,11.80
2019-03-19T06:14:26.277Z,11.90
2019-03-19T06:15:26.246Z,11.70
2019-03-19T06:16:26.270Z,12.50
2019-03-19T06:17:26.198Z,11.50
2019-03-19T06:18:34.659Z,11.80
2019-03-19T06:19:26.185Z,11.90
2019-03-19T06:20:26.131Z,11.20
2019-03-19T06:23:12.455Z,11.70
2019-03-19T06:24:12.425Z,10.90
2019-03-19T06:25:12.452Z,11.10
2019-03-19T06:26:12.378Z,10.50
2019-03-19T06:27:12.357Z,10.40
2019-03-19T06:28:12.346Z,10.40
2019-03-19T06:29:12.304Z,10.40
2019-03-19T06:30:12.288Z,10.90
2019-03-19T06:31:12.268Z,10.60
2019-03-19T06:32:12.275Z,10.80
2019-03-19T06:33:12.213Z,10.90
2019-03-19T06:34:12.191Z,10.50
2019-03-19T06:35:12.167Z,11.00
2019-03-19T06:36:12.147Z,10.90
2019-03-19T06:37:12.127Z,11.30
2019-03-19T06:38:12.109Z,10.80
2019-03-19T06:39:12.077Z,10.70
2019-03-19T06:40:12.059Z,10.10
2019-03-19T06:41:12.026Z,9.70
2019-03-19T06:42:12.000Z,9.60
2019-03-19T06:43:12.010Z,9.40
2019-03-19T06:44:11.959Z,9.70
2019-03-19T06:45:11.933Z,9.00
2019-03-19T06:46:11.915Z,9.10
2019-03-19T06:47:11.888Z,9.20
2019-03-19T06:48:11.869Z,9.10
2019-03-19T06:49:11.855Z,8.80
2019-03-19T06:50:11.824Z,9.30
2019-03-19T06:51:11.801Z,8.80
2019-03-19T06:52:11.792Z,8.80
2019-03-19T06:53:11.748Z,8.40
2019-03-19T06:54:11.797Z,8.60
2019-03-19T06:55:11.707Z,8.30
2019-03-19T06:56:11.679Z,9.00
2019-03-19T06:57:11.656Z,8.60
2019-03-19T06:58:11.672Z,8.80
2019-03-19T06:59:11.622Z,9.00
2019-03-19T07:00:11.582Z,9.20
2019-03-19T07:01:11.571Z,9.10
2019-03-19T07:02:11.550Z,8.80
2019-03-19T07:03:11.520Z,9.00
2019-03-19T07:04:11.509Z,9.20
2019-03-19T07:05:11.483Z,8.70
2019-03-19T07:06:11.481Z,8.80
2019-03-19T07:07:11.423Z,9.30
2019-03-19T07:08:11.400Z,9.50
2019-03-19T07:09:11.385Z,9.20
2019-03-19T07:10:11.358Z,9.40
2019-03-19T07:11:11.353Z,9.60
2019-03-19T07:12:11.316Z,9.20
2019-03-19T07:13:11.306Z,9.30
2019-03-19T07:14:11.269Z,8.70
2019-03-19T07:15:11.243Z,8.50
2019-03-19T07:16:11.230Z,8.60
2019-03-19T07:17:11.221Z,9.10
2019-03-19T07:18:11.175Z,8.60
2019-03-19T07:19:11.151Z,8.90
2019-03-19T07:20:11.130Z,9.10
2019-03-19T07:21:11.108Z,9.10
2019-03-19T07:22:11.082Z,8.80
2019-03-19T07:23:11.076Z,9.30
2019-03-19T07:24:11.055Z,9.40
2019-03-19T07:25:11.014Z,8.80
2019-03-19T07:26:10.992Z,8.90
2019-03-19T07:27:10.970Z,9.00
2019-03-19T07:28:21.462Z,9.00
2019-03-19T07:29:10.938Z,9.00
2019-03-19T07:30:10.896Z,9.40
2019-03-19T07:31:10.874Z,9.30
2019-03-19T07:32:10.852Z,10.20
2019-03-19T07:33:11.533Z,9.90
2019-03-19T07:34:10.805Z,8.80
2019-03-19T07:35:10.798Z,9.00
2019-03-19T07:36:10.758Z,8.80
2019-03-19T07:37:10.736Z,8.80
2019-03-19T07:38:10.714Z,9.20
2019-03-19T07:39:10.710Z,8.80
2019-03-19T07:40:10.669Z,9.50
2019-03-19T07:41:10.646Z,9.60
2019-03-19T07:42:10.622Z,9.40
2019-03-19T07:43:10.612Z,9.60
2019-03-19T07:44:10.589Z,9.50
2019-03-19T07:45:10.578Z,9.30
2019-03-19T07:46:10.526Z,9.30
2019-03-19T07:47:10.531Z,9.70
2019-03-19T07:48:10.482Z,9.60
2019-03-19T07:49:10.473Z,9.50
2019-03-19T07:50:10.440Z,8.80
2019-03-19T07:51:10.421Z,9.40
2019-03-19T07:52:10.395Z,9.30
2019-03-19T07:53:10.369Z,9.30
2019-03-19T07:54:10.348Z,9.30
2019-03-19T07:55:10.338Z,8.80
2019-03-19T07:56:10.299Z,9.60
2019-03-19T07:57:10.293Z,9.70
2019-03-19T07:58:10.254Z,8.80
2019-03-19T07:59:10.229Z,9.10
2019-03-19T08:00:10.209Z,9.10
2019-03-19T08:01:10.186Z,9.30
2019-03-19T08:02:10.182Z,9.20
2019-03-19T08:03:16.070Z,9.60
2019-03-19T08:04:10.115Z,9.50
2019-03-19T08:05:10.109Z,8.90
2019-03-19T08:06:10.992Z,9.60
2019-03-19T08:07:10.052Z,9.50
2019-03-19T08:08:10.024Z,9.60
2019-03-19T08:09:10.015Z,9.00
2019-03-19T08:10:10.046Z,9.10
2019-03-19T08:11:09.962Z,9.30
2019-03-19T08:12:09.950Z,9.10
2019-03-19T08:13:09.934Z,9.60
2019-03-19T08:14:09.896Z,9.50
2019-03-19T08:15:09.877Z,9.60
2019-03-19T08:16:09.845Z,10.00
2019-03-19T08:17:09.827Z,9.90
2019-03-19T08:18:09.804Z,9.00
2019-03-19T08:19:09.854Z,9.20
2019-03-19T08:20:09.764Z,9.10
2019-03-19T08:21:09.740Z,9.50
2019-03-19T08:22:09.716Z,9.80
2019-03-19T08:23:09.692Z,9.20
2019-03-19T08:24:09.666Z,9.60
2019-03-19T08:25:09.828Z,9.30
2019-03-19T08:26:09.622Z,9.20
2019-03-19T08:27:09.594Z,9.40
2019-03-19T08:28:09.579Z,9.60
2019-03-19T08:29:09.557Z,9.80
2019-03-19T08:30:09.527Z,9.60
2019-03-19T08:31:09.539Z,8.90
2019-03-19T08:32:09.492Z,9.20
2019-03-19T08:33:09.464Z,9.40
2019-03-19T08:34:09.447Z,9.80
2019-03-19T08:35:09.488Z,9.70
2019-03-19T08:36:09.818Z,9.50
2019-03-19T08:37:09.398Z,9.60
2019-03-19T08:38:09.385Z,9.30
2019-03-19T08:39:09.333Z,9.50
2019-03-19T08:40:09.308Z,9.30
2019-03-19T08:41:09.287Z,9.40
2019-03-19T08:42:09.270Z,9.40
2019-03-19T08:43:09.247Z,9.40
2019-03-19T08:44:09.240Z,9.30
2019-03-19T08:45:09.217Z,9.10
2019-03-19T08:46:09.213Z,9.00
2019-03-19T08:47:09.149Z,9.10
2019-03-19T08:48:09.133Z,9.10
2019-03-19T08:49:09.113Z,8.60
2019-03-19T08:50:09.090Z,9.10
2019-03-19T08:51:09.080Z,8.20
2019-03-19T08:52:09.047Z,8.60
2019-03-19T08:53:09.022Z,8.50
2019-03-19T08:54:09.006Z,8.70
2019-03-19T08:55:08.980Z,8.80
2019-03-19T08:56:08.973Z,8.50
2019-03-19T08:57:08.958Z,8.70
2019-03-19T08:58:08.915Z,9.00
2019-03-19T08:59:08.890Z,9.30
2019-03-19T09:00:08.873Z,9.10
2019-03-19T09:01:08.854Z,8.70
2019-03-19T09:02:08.846Z,8.50
2019-03-19T09:03:08.805Z,8.70
2019-03-19T09:04:08.785Z,8.90
2019-03-19T09:05:08.759Z,8.70
2019-03-19T09:06:08.748Z,8.40
2019-03-19T09:07:08.719Z,8.50
2019-03-19T09:08:08.710Z,8.00
2019-03-19T09:09:08.679Z,8.20
2019-03-19T09:10:08.684Z,8.00
2019-03-19T09:11:08.632Z,8.50
2019-03-19T09:12:08.616Z,7.80
2019-03-19T09:13:08.590Z,8.20
2019-03-19T09:14:08.575Z,7.80
2019-03-19T09:15:08.546Z,7.50
2019-03-19T09:16:08.545Z,8.10
2019-03-19T09:17:08.514Z,7.40
2019-03-19T09:18:08.515Z,7.60
2019-03-19T09:19:08.492Z,8.10
2019-03-19T09:20:08.445Z,7.10
2019-03-19T09:21:08.439Z,7.10
2019-03-19T09:22:08.419Z,7.80
2019-03-19T09:23:08.377Z,7.10
2019-03-19T09:24:08.403Z,7.40
2019-03-19T09:25:08.336Z,6.90
2019-03-19T09:26:08.336Z,7.00
2019-03-19T09:27:08.301Z,7.20
2019-03-19T09:28:08.271Z,7.00
2019-03-19T09:29:16.468Z,6.90
2019-03-19T09:30:08.239Z,7.30
2019-03-19T09:31:08.217Z,7.10
2019-03-19T09:32:08.225Z,6.70
2019-03-19T09:33:08.185Z,6.90
2019-03-19T09:34:08.155Z,6.90
2019-03-19T09:35:08.140Z,6.90
2019-03-19T09:36:08.122Z,6.20
2019-03-19T09:37:08.096Z,6.30
2019-03-19T09:38:08.098Z,6.00
2019-03-19T09:39:08.133Z,5.70
2019-03-19T09:40:08.051Z,5.50
2019-03-19T09:41:08.023Z,5.30
2019-03-19T09:42:08.006Z,5.30
2019-03-19T09:43:07.982Z,5.40
2019-03-19T09:44:07.973Z,5.50
2019-03-19T09:45:07.969Z,5.70
2019-03-19T09:46:07.933Z,5.70
2019-03-19T09:47:07.907Z,5.70
2019-03-19T09:48:07.890Z,5.60
2019-03-19T09:49:07.872Z,5.50
2019-03-19T09:50:07.945Z,5.80
2019-03-19T09:51:07.855Z,5.20
2019-03-19T09:52:07.860Z,5.70
2019-03-19T09:53:07.796Z,5.50
2019-03-19T09:54:07.797Z,5.70
2019-03-19T09:55:07.761Z,5.70
2019-03-19T09:56:07.738Z,5.40
2019-03-19T09:57:07.723Z,5.00
2019-03-19T09:58:07.739Z,5.60
2019-03-19T09:59:07.685Z,5.50
2019-03-19T10:00:07.675Z,5.10
2019-03-19T10:01:07.656Z,5.20
2019-03-19T10:02:07.640Z,5.40
2019-03-19T10:03:07.633Z,5.50
2019-03-19T10:04:07.598Z,5.50
2019-03-19T10:05:07.585Z,5.10
2019-03-19T10:06:13.939Z,5.30
2019-03-19T10:07:07.544Z,4.80
2019-03-19T10:08:07.527Z,4.60
2019-03-19T10:09:07.527Z,4.80
2019-03-19T10:10:07.492Z,4.90
2019-03-19T10:11:07.471Z,4.70
2019-03-19T10:12:07.470Z,4.90
2019-03-19T10:13:07.468Z,4.60
2019-03-19T10:14:07.431Z,4.80
2019-03-19T10:15:07.399Z,4.90
2019-03-19T10:16:07.765Z,4.40
2019-03-19T10:17:07.368Z,4.40
2019-03-19T10:18:07.404Z,4.30
2019-03-19T10:19:07.360Z,4.10
2019-03-19T10:20:07.489Z,3.90
2019-03-19T10:21:07.304Z,3.80
2019-03-19T10:22:07.300Z,4.00
2019-03-19T10:23:07.262Z,3.80
2019-03-19T10:24:07.249Z,3.80
2019-03-19T10:25:07.255Z,3.50
2019-03-19T10:26:07.232Z,3.60
2019-03-19T10:27:07.208Z,3.60
2019-03-19T10:28:07.201Z,3.40
2019-03-19T10:29:07.165Z,3.30
2019-03-19T10:30:07.151Z,3.80
2019-03-19T10:31:07.133Z,3.60
2019-03-19T10:32:07.119Z,3.50
2019-03-19T10:33:07.119Z,3.60
2019-03-19T10:34:07.089Z,3.70
2019-03-19T10:35:07.070Z,3.60
2019-03-19T10:36:07.053Z,3.30
2019-03-19T10:37:07.039Z,3.50
2019-03-19T10:38:07.060Z,3.40
2019-03-19T10:39:08.929Z,3.40
2019-03-19T10:40:06.992Z,3.30
2019-03-19T10:41:06.976Z,3.30
2019-03-19T10:42:06.958Z,3.40
2019-03-19T10:43:06.945Z,3.20
2019-03-19T10:44:06.946Z,3.50
2019-03-19T10:45:06.909Z,3.10
2019-03-19T10:46:06.894Z,3.50
2019-03-19T10:47:06.897Z,3.50
2019-03-19T10:48:06.871Z,3.40
2019-03-19T10:49:06.874Z,3.30
2019-03-19T10:50:06.859Z,3.10
2019-03-19T10:51:06.823Z,3.50
2019-03-19T10:52:06.809Z,3.00
2019-03-19T10:53:06.802Z,3.20
2019-03-19T10:54:06.783Z,3.50
2019-03-19T10:55:06.783Z,3.30
2019-03-19T10:56:06.753Z,3.20
2019-03-19T10:57:06.740Z,3.20
2019-03-19T10:58:11.044Z,2.90
2019-03-19T10:59:06.710Z,3.20
2019-03-19T11:00:06.693Z,2.90
2019-03-19T11:01:06.700Z,3.00
2019-03-19T11:02:06.672Z,3.30
2019-03-19T11:03:06.652Z,3.40
2019-03-19T11:04:06.638Z,3.20
2019-03-19T11:05:06.637Z,3.20
2019-03-19T11:06:06.613Z,3.20
2019-03-19T11:07:06.613Z,3.20
2019-03-19T11:08:06.599Z,3.20
2019-03-19T11:09:06.571Z,3.20
2019-03-19T11:10:06.578Z,3.20
2019-03-19T11:11:06.543Z,3.30
2019-03-19T11:12:06.534Z,3.20
2019-03-19T11:13:06.543Z,2.80
2019-03-19T11:14:06.530Z,3.00
2019-03-19T11:15:06.497Z,2.90
2019-03-19T11:16:06.477Z,2.90
2019-03-19T11:17:06.471Z,2.80
2019-03-19T11:18:06.460Z,2.70
2019-03-19T11:19:06.438Z,2.80
2019-03-19T11:20:06.446Z,3.10
2019-03-19T11:21:06.424Z,2.80
2019-03-19T11:22:06.404Z,2.60
2019-03-19T11:23:06.391Z,2.60
2019-03-19T11:24:06.398Z,2.80
2019-03-19T11:25:06.359Z,3.00
2019-03-19T11:26:06.371Z,2.90
2019-03-19T11:27:06.353Z,2.90
2019-03-19T11:28:06.323Z,2.80
2019-03-19T11:29:06.323Z,2.80
2019-03-19T11:30:06.650Z,2.90
2019-03-19T11:31:06.292Z,3.20
2019-03-19T11:32:06.272Z,2.90
2019-03-19T11:33:06.274Z,3.00
2019-03-19T11:34:06.251Z,2.80
2019-03-19T11:35:06.238Z,2.60
2019-03-19T11:36:06.265Z,3.00
2019-03-19T11:37:06.214Z,3.00
2019-03-19T11:38:06.206Z,2.90
2019-03-19T11:39:06.192Z,3.10
2019-03-19T11:40:06.228Z,2.80
2019-03-19T11:41:07.254Z,3.30
2019-03-19T11:42:06.158Z,3.00
2019-03-19T11:43:06.144Z,3.20
2019-03-19T11:44:06.139Z,3.50
2019-03-19T11:45:06.146Z,2.90
2019-03-19T11:46:06.111Z,3.10
2019-03-19T11:47:06.103Z,3.20
2019-03-19T11:48:06.088Z,2.90
2019-03-19T11:49:06.072Z,3.20
2019-03-19T11:50:06.062Z,3.10
2019-03-19T11:51:06.067Z,3.00
2019-03-19T11:52:06.049Z,2.90
2019-03-19T11:53:06.038Z,3.00
2019-03-19T11:54:06.031Z,2.80
2019-03-19T11:55:06.002Z,3.00
2019-03-19T11:56:06.010Z,3.20
2019-03-19T11:57:05.992Z,3.00
2019-03-19T11:58:05.980Z,2.90
2019-03-19T11:59:05.962Z,2.90
2019-03-19T12:00:11.176Z,2.80
2019-03-19T12:01:05.953Z,2.70
2019-03-19T12:02:05.940Z,2.60
2019-03-19T12:03:12.671Z,2.70
2019-03-19T12:04:05.908Z,3.10
2019-03-19T12:05:05.896Z,2.90
2019-03-19T12:06:05.903Z,2.70
2019-03-19T12:07:05.870Z,3.10
2019-03-19T12:08:05.864Z,3.00
2019-03-19T12:09:05.858Z,2.70
2019-03-19T12:10:05.859Z,2.90
2019-03-19T12:11:05.833Z,2.80
2019-03-19T12:12:05.821Z,2.90
2019-03-19T12:13:05.811Z,3.10
2019-03-19T12:14:05.805Z,2.80
2019-03-19T12:15:05.811Z,3.10
2019-03-19T12:16:05.777Z,3.00
2019-03-19T12:17:05.764Z,2.70
2019-03-19T12:18:05.757Z,2.70
2019-03-19T12:19:05.748Z,3.00
2019-03-19T12:20:05.757Z,2.70
2019-03-19T12:21:05.724Z,2.80
2019-03-19T12:22:05.714Z,2.80
2019-03-19T12:23:05.701Z,2.90
2019-03-19T12:24:05.703Z,2.90
2019-03-19T12:25:05.723Z,3.00
2019-03-19T12:26:05.673Z,2.90
2019-03-19T12:27:05.659Z,3.00
2019-03-19T12:28:05.657Z,2.50
2019-03-19T12:29:05.647Z,2.80
2019-03-19T12:30:05.657Z,3.00
2019-03-19T12:31:05.637Z,3.00
2019-03-19T12:32:05.615Z,2.80
2019-03-19T12:33:05.622Z,2.90
2019-03-19T12:34:05.594Z,2.70
2019-03-19T12:35:05.585Z,2.80
2019-03-19T12:36:05.600Z,2.80
2019-03-19T12:37:05.565Z,2.80
2019-03-19T12:38:05.559Z,2.50
2019-03-19T12:39:05.539Z,2.80
2019-03-19T12:40:05.532Z,2.80
2019-03-19T12:41:05.541Z,2.70
2019-03-19T12:42:05.534Z,3.00
2019-03-19T12:43:05.529Z,2.70
2019-03-19T12:44:05.504Z,2.60
2019-03-19T12:45:05.489Z,2.80
2019-03-19T12:46:05.517Z,2.60
2019-03-19T12:47:05.460Z,2.70
2019-03-19T12:48:05.460Z,2.70
2019-03-19T12:49:05.427Z,2.90
2019-03-19T12:50:05.420Z,2.90
2019-03-19T12:51:05.404Z,2.60
2019-03-19T12:52:05.392Z,2.40
2019-03-19T12:53:05.371Z,2.50
2019-03-19T12:54:05.381Z,2.80
2019-03-19T12:55:05.343Z,2.70
2019-03-19T12:56:05.375Z,2.40
2019-03-19T12:57:05.329Z,2.70
2019-03-19T12:58:05.303Z,2.80
2019-03-19T12:59:05.331Z,2.80
2019-03-19T13:00:05.289Z,2.70
2019-03-19T13:01:05.288Z,2.90
2019-03-19T13:02:05.251Z,2.90
2019-03-19T13:03:05.233Z,2.70
2019-03-19T13:04:05.215Z,2.70
2019-03-19T13:05:05.226Z,2.70
2019-03-19T13:06:05.205Z,3.00
2019-03-19T13:07:05.166Z,2.90
2019-03-19T13:08:05.217Z,2.60
2019-03-19T13:09:05.147Z,3.00
2019-03-19T13:10:05.126Z,2.90
2019-03-19T13:11:05.120Z,3.00
2019-03-19T13:12:05.110Z,2.60
2019-03-19T13:13:05.077Z,2.90
2019-03-19T13:14:05.060Z,2.70
2019-03-19T13:15:05.053Z,2.80